sensor_id;sensor_type;location;lat;lon;timestamp;P1;durP1;ratioP1;P2;durP2;ratioP2
7783;SDS011;19359;51.402;6.778;2023-07-20T00:01:18;757.53;;;451.20;;
7783;SDS011;19359;51.402;6.778;2023-07-20T00:03:45;759.45;;;460.17;;
7783;SDS011;19359;51.402;6.778;2023-07-20T00:06:20;771.30;;;475.73;;
7783;SDS011;19359;51.402;6.778;2023-07-20T00:08:47;759.63;;;453.38;;
7783;SDS011;19359;51.402;6.778;2023-07-20T00:11:15;756.03;;;438.25;;
7783;SDS011;19359;51.402;6.778;2023-07-20T00:13:42;759.85;;;452.38;;
7783;SDS011;19359;51.402;6.778;2023-07-20T00:16:09;784.63;;;463.33;;
7783;SDS011;19359;51.402;6.778;2023-07-20T00:18:37;760.03;;;453.63;;
7783;SDS011;19359;51.402;6.778;2023-07-20T00:21:04;764.15;;;457.63;;
7783;SDS011;19359;51.402;6.778;2023-07-20T00:23:31;762.28;;;452.90;;
7783;SDS011;19359;51.402;6.778;2023-07-20T00:25:58;761.95;;;457.08;;
7783;SDS011;19359;51.402;6.778;2023-07-20T00:28:27;762.58;;;450.65;;
7783;SDS011;19359;51.402;6.778;2023-07-20T00:30:54;764.17;;;454.42;;
7783;SDS011;19359;51.402;6.778;2023-07-20T00:33:21;762.75;;;453.67;;
7783;SDS011;19359;51.402;6.778;2023-07-20T00:35:48;757.88;;;434.85;;
7783;SDS011;19359;51.402;6.778;2023-07-20T00:38:15;760.25;;;454.02;;
7783;SDS011;19359;51.402;6.778;2023-07-20T00:40:42;768.05;;;452.58;;
7783;SDS011;19359;51.402;6.778;2023-07-20T00:43:09;762.05;;;447.50;;
7783;SDS011;19359;51.402;6.778;2023-07-20T00:45:37;764.55;;;458.20;;
7783;SDS011;19359;51.402;6.778;2023-07-20T00:48:05;760.60;;;451.05;;
7783;SDS011;19359;51.402;6.778;2023-07-20T00:50:33;757.25;;;440.25;;
7783;SDS011;19359;51.402;6.778;2023-07-20T00:53:00;759.80;;;445.48;;
7783;SDS011;19359;51.402;6.778;2023-07-20T00:55:30;761.42;;;447.20;;
7783;SDS011;19359;51.402;6.778;2023-07-20T00:57:57;760.80;;;456.58;;
7783;SDS011;19359;51.402;6.778;2023-07-20T01:00:24;759.92;;;444.67;;
7783;SDS011;19359;51.402;6.778;2023-07-20T01:02:54;755.67;;;430.23;;
7783;SDS011;19359;51.402;6.778;2023-07-20T01:05:21;759.92;;;445.63;;
7783;SDS011;19359;51.402;6.778;2023-07-20T01:07:52;754.33;;;431.98;;
7783;SDS011;19359;51.402;6.778;2023-07-20T01:10:20;757.50;;;438.98;;
7783;SDS011;19359;51.402;6.778;2023-07-20T01:12:51;757.53;;;448.02;;
7783;SDS011;19359;51.402;6.778;2023-07-20T01:15:19;760.38;;;438.70;;
7783;SDS011;19359;51.402;6.778;2023-07-20T01:17:46;757.67;;;451.52;;
7783;SDS011;19359;51.402;6.778;2023-07-20T01:20:15;756.85;;;444.13;;
7783;SDS011;19359;51.402;6.778;2023-07-20T01:22:47;759.63;;;443.02;;
7783;SDS011;19359;51.402;6.778;2023-07-20T01:25:26;754.42;;;438.20;;
7783;SDS011;19359;51.402;6.778;2023-07-20T01:31:12;756.05;;;421.75;;
7783;SDS011;19359;51.402;6.778;2023-07-20T01:33:40;755.72;;;427.48;;
7783;SDS011;19359;51.402;6.778;2023-07-20T01:36:08;761.25;;;443.63;;
7783;SDS011;19359;51.402;6.778;2023-07-20T01:38:36;763.13;;;454.20;;
7783;SDS011;19359;51.402;6.778;2023-07-20T01:41:04;759.10;;;441.63;;
7783;SDS011;19359;51.402;6.778;2023-07-20T01:43:31;757.67;;;435.13;;
7783;SDS011;19359;51.402;6.778;2023-07-20T01:45:59;761.50;;;442.88;;
7783;SDS011;19359;51.402;6.778;2023-07-20T01:48:27;761.05;;;445.67;;
7783;SDS011;19359;51.402;6.778;2023-07-20T01:50:54;761.42;;;444.02;;
7783;SDS011;19359;51.402;6.778;2023-07-20T01:53:22;751.90;;;417.40;;
7783;SDS011;19359;51.402;6.778;2023-07-20T01:55:49;753.35;;;409.13;;
7783;SDS011;19359;51.402;6.778;2023-07-20T01:58:16;749.95;;;412.27;;
7783;SDS011;19359;51.402;6.778;2023-07-20T02:00:43;753.78;;;405.55;;
7783;SDS011;19359;51.402;6.778;2023-07-20T02:03:10;755.83;;;423.08;;
7783;SDS011;19359;51.402;6.778;2023-07-20T02:05:39;745.90;;;408.70;;
7783;SDS011;19359;51.402;6.778;2023-07-20T02:08:08;746.75;;;404.67;;
7783;SDS011;19359;51.402;6.778;2023-07-20T02:10:35;748.42;;;410.25;;
7783;SDS011;19359;51.402;6.778;2023-07-20T02:13:03;750.03;;;414.60;;
7783;SDS011;19359;51.402;6.778;2023-07-20T02:15:30;748.00;;;396.23;;
7783;SDS011;19359;51.402;6.778;2023-07-20T02:17:57;745.05;;;400.25;;
7783;SDS011;19359;51.402;6.778;2023-07-20T02:20:24;740.33;;;394.40;;
7783;SDS011;19359;51.402;6.778;2023-07-20T02:22:54;744.38;;;395.95;;
7783;SDS011;19359;51.402;6.778;2023-07-20T02:25:21;745.85;;;401.30;;
7783;SDS011;19359;51.402;6.778;2023-07-20T02:27:48;743.97;;;393.10;;
7783;SDS011;19359;51.402;6.778;2023-07-20T02:30:15;741.63;;;386.25;;
7783;SDS011;19359;51.402;6.778;2023-07-20T02:32:43;747.65;;;395.88;;
7783;SDS011;19359;51.402;6.778;2023-07-20T02:35:10;740.05;;;381.10;;
7783;SDS011;19359;51.402;6.778;2023-07-20T02:37:37;740.80;;;393.85;;
7783;SDS011;19359;51.402;6.778;2023-07-20T02:40:06;741.22;;;383.95;;
7783;SDS011;19359;51.402;6.778;2023-07-20T02:42:34;747.53;;;386.95;;
7783;SDS011;19359;51.402;6.778;2023-07-20T02:45:01;744.92;;;399.25;;
7783;SDS011;19359;51.402;6.778;2023-07-20T02:47:29;741.85;;;393.48;;
7783;SDS011;19359;51.402;6.778;2023-07-20T02:49:56;742.50;;;386.65;;
7783;SDS011;19359;51.402;6.778;2023-07-20T02:52:23;748.20;;;398.13;;
7783;SDS011;19359;51.402;6.778;2023-07-20T02:54:50;748.13;;;398.40;;
7783;SDS011;19359;51.402;6.778;2023-07-20T02:57:19;740.38;;;377.35;;
7783;SDS011;19359;51.402;6.778;2023-07-20T02:59:46;741.92;;;378.80;;
7783;SDS011;19359;51.402;6.778;2023-07-20T03:02:13;744.22;;;375.35;;
7783;SDS011;19359;51.402;6.778;2023-07-20T03:04:40;737.13;;;369.80;;
7783;SDS011;19359;51.402;6.778;2023-07-20T03:07:07;742.40;;;379.95;;
7783;SDS011;19359;51.402;6.778;2023-07-20T03:09:34;738.75;;;374.20;;
7783;SDS011;19359;51.402;6.778;2023-07-20T03:12:01;735.97;;;366.20;;
7783;SDS011;19359;51.402;6.778;2023-07-20T03:14:31;738.67;;;373.35;;
7783;SDS011;19359;51.402;6.778;2023-07-20T03:16:58;741.65;;;366.13;;
7783;SDS011;19359;51.402;6.778;2023-07-20T03:19:25;745.17;;;377.40;;
7783;SDS011;19359;51.402;6.778;2023-07-20T03:21:53;738.38;;;363.23;;
7783;SDS011;19359;51.402;6.778;2023-07-20T03:24:20;738.88;;;370.10;;
7783;SDS011;19359;51.402;6.778;2023-07-20T03:26:48;737.55;;;366.08;;
7783;SDS011;19359;51.402;6.778;2023-07-20T03:29:15;741.95;;;367.35;;
7783;SDS011;19359;51.402;6.778;2023-07-20T03:31:44;739.53;;;366.60;;
7783;SDS011;19359;51.402;6.778;2023-07-20T03:34:11;736.83;;;362.40;;
7783;SDS011;19359;51.402;6.778;2023-07-20T03:36:38;738.97;;;366.73;;
7783;SDS011;19359;51.402;6.778;2023-07-20T03:39:05;741.05;;;372.13;;
7783;SDS011;19359;51.402;6.778;2023-07-20T03:41:32;732.33;;;357.60;;
7783;SDS011;19359;51.402;6.778;2023-07-20T03:43:59;748.38;;;376.67;;
7783;SDS011;19359;51.402;6.778;2023-07-20T03:46:26;738.35;;;357.70;;
7783;SDS011;19359;51.402;6.778;2023-07-20T03:48:55;743.28;;;374.75;;
7783;SDS011;19359;51.402;6.778;2023-07-20T03:51:22;737.00;;;363.85;;
7783;SDS011;19359;51.402;6.778;2023-07-20T03:53:49;735.00;;;354.88;;
7783;SDS011;19359;51.402;6.778;2023-07-20T03:56:16;739.15;;;369.80;;
7783;SDS011;19359;51.402;6.778;2023-07-20T03:58:43;731.95;;;354.38;;
7783;SDS011;19359;51.402;6.778;2023-07-20T04:01:10;736.05;;;366.40;;
7783;SDS011;19359;51.402;6.778;2023-07-20T04:03:38;737.25;;;360.63;;
7783;SDS011;19359;51.402;6.778;2023-07-20T04:06:06;734.00;;;363.20;;
7783;SDS011;19359;51.402;6.778;2023-07-20T04:08:33;737.10;;;355.65;;
7783;SDS011;19359;51.402;6.778;2023-07-20T04:11:01;738.90;;;364.77;;
7783;SDS011;19359;51.402;6.778;2023-07-20T04:13:28;731.05;;;355.27;;
7783;SDS011;19359;51.402;6.778;2023-07-20T04:15:58;734.47;;;371.45;;
7783;SDS011;19359;51.402;6.778;2023-07-20T04:18:25;735.47;;;360.80;;
7783;SDS011;19359;51.402;6.778;2023-07-20T04:20:52;732.65;;;361.30;;
7783;SDS011;19359;51.402;6.778;2023-07-20T04:23:21;733.53;;;366.02;;
7783;SDS011;19359;51.402;6.778;2023-07-20T04:25:47;732.15;;;359.85;;
7783;SDS011;19359;51.402;6.778;2023-07-20T04:28:15;734.17;;;361.50;;
7783;SDS011;19359;51.402;6.778;2023-07-20T04:30:42;742.97;;;365.23;;
7783;SDS011;19359;51.402;6.778;2023-07-20T04:33:09;728.72;;;363.00;;
7783;SDS011;19359;51.402;6.778;2023-07-20T04:35:46;729.17;;;354.80;;
7783;SDS011;19359;51.402;6.778;2023-07-20T04:38:13;727.58;;;356.55;;
7783;SDS011;19359;51.402;6.778;2023-07-20T04:40:43;730.80;;;363.48;;
7783;SDS011;19359;51.402;6.778;2023-07-20T04:43:11;734.92;;;369.83;;
7783;SDS011;19359;51.402;6.778;2023-07-20T04:45:38;733.60;;;370.88;;
7783;SDS011;19359;51.402;6.778;2023-07-20T04:48:09;735.30;;;372.25;;
7783;SDS011;19359;51.402;6.778;2023-07-20T04:50:36;739.10;;;378.63;;
7783;SDS011;19359;51.402;6.778;2023-07-20T04:53:03;739.25;;;379.85;;
7783;SDS011;19359;51.402;6.778;2023-07-20T04:55:31;744.30;;;390.90;;
7783;SDS011;19359;51.402;6.778;2023-07-20T04:58:01;738.65;;;372.90;;
7783;SDS011;19359;51.402;6.778;2023-07-20T05:00:28;746.33;;;389.48;;
7783;SDS011;19359;51.402;6.778;2023-07-20T05:02:55;739.58;;;381.48;;
7783;SDS011;19359;51.402;6.778;2023-07-20T05:05:22;748.35;;;392.45;;
7783;SDS011;19359;51.402;6.778;2023-07-20T05:07:49;741.47;;;382.30;;
7783;SDS011;19359;51.402;6.778;2023-07-20T05:10:16;741.33;;;381.42;;
7783;SDS011;19359;51.402;6.778;2023-07-20T05:12:44;740.88;;;375.60;;
7783;SDS011;19359;51.402;6.778;2023-07-20T05:15:12;762.55;;;406.23;;
7783;SDS011;19359;51.402;6.778;2023-07-20T05:17:39;744.22;;;388.67;;
7783;SDS011;19359;51.402;6.778;2023-07-20T05:20:06;742.80;;;373.52;;
7783;SDS011;19359;51.402;6.778;2023-07-20T05:22:37;739.47;;;382.98;;
7783;SDS011;19359;51.402;6.778;2023-07-20T05:25:05;750.17;;;383.10;;
7783;SDS011;19359;51.402;6.778;2023-07-20T05:27:32;740.67;;;373.50;;
7783;SDS011;19359;51.402;6.778;2023-07-20T05:30:00;739.05;;;382.20;;
7783;SDS011;19359;51.402;6.778;2023-07-20T05:32:28;741.97;;;389.35;;
7783;SDS011;19359;51.402;6.778;2023-07-20T05:34:55;744.35;;;386.67;;
7783;SDS011;19359;51.402;6.778;2023-07-20T05:37:22;743.10;;;381.15;;
7783;SDS011;19359;51.402;6.778;2023-07-20T05:39:49;740.53;;;380.40;;
7783;SDS011;19359;51.402;6.778;2023-07-20T05:42:16;748.20;;;390.48;;
7783;SDS011;19359;51.402;6.778;2023-07-20T05:44:43;742.42;;;377.83;;
7783;SDS011;19359;51.402;6.778;2023-07-20T05:47:12;741.25;;;381.13;;
7783;SDS011;19359;51.402;6.778;2023-07-20T05:49:40;740.15;;;377.10;;
7783;SDS011;19359;51.402;6.778;2023-07-20T05:52:07;742.92;;;382.52;;
7783;SDS011;19359;51.402;6.778;2023-07-20T05:54:34;743.90;;;383.25;;
7783;SDS011;19359;51.402;6.778;2023-07-20T05:57:01;745.95;;;392.90;;
7783;SDS011;19359;51.402;6.778;2023-07-20T05:59:28;747.78;;;391.30;;
7783;SDS011;19359;51.402;6.778;2023-07-20T06:01:56;742.28;;;384.92;;
7783;SDS011;19359;51.402;6.778;2023-07-20T06:04:23;742.33;;;387.60;;
7783;SDS011;19359;51.402;6.778;2023-07-20T06:06:52;741.58;;;384.80;;
7783;SDS011;19359;51.402;6.778;2023-07-20T06:09:19;747.15;;;402.08;;
7783;SDS011;19359;51.402;6.778;2023-07-20T06:11:46;751.78;;;411.88;;
7783;SDS011;19359;51.402;6.778;2023-07-20T06:14:13;751.45;;;400.13;;
7783;SDS011;19359;51.402;6.778;2023-07-20T06:16:40;757.13;;;416.80;;
7783;SDS011;19359;51.402;6.778;2023-07-20T06:19:07;751.10;;;415.33;;
7783;SDS011;19359;51.402;6.778;2023-07-20T06:21:36;755.33;;;417.48;;
7783;SDS011;19359;51.402;6.778;2023-07-20T06:24:04;761.30;;;429.52;;
7783;SDS011;19359;51.402;6.778;2023-07-20T06:26:32;762.30;;;439.48;;
7783;SDS011;19359;51.402;6.778;2023-07-20T06:29:03;753.45;;;426.13;;
7783;SDS011;19359;51.402;6.778;2023-07-20T06:31:31;764.63;;;446.85;;
7783;SDS011;19359;51.402;6.778;2023-07-20T06:33:58;763.42;;;445.08;;
7783;SDS011;19359;51.402;6.778;2023-07-20T06:36:26;761.83;;;442.27;;
7783;SDS011;19359;51.402;6.778;2023-07-20T06:38:53;764.20;;;450.38;;
7783;SDS011;19359;51.402;6.778;2023-07-20T06:41:21;770.58;;;457.27;;
7783;SDS011;19359;51.402;6.778;2023-07-20T06:43:49;762.22;;;442.40;;
7783;SDS011;19359;51.402;6.778;2023-07-20T06:46:17;764.47;;;459.63;;
7783;SDS011;19359;51.402;6.778;2023-07-20T06:48:44;764.58;;;459.33;;
7783;SDS011;19359;51.402;6.778;2023-07-20T06:51:11;766.33;;;455.77;;
7783;SDS011;19359;51.402;6.778;2023-07-20T06:53:38;763.25;;;442.92;;
7783;SDS011;19359;51.402;6.778;2023-07-20T06:56:05;766.15;;;439.80;;
7783;SDS011;19359;51.402;6.778;2023-07-20T06:58:33;759.35;;;434.38;;
7783;SDS011;19359;51.402;6.778;2023-07-20T07:01:04;766.20;;;426.15;;
7783;SDS011;19359;51.402;6.778;2023-07-20T07:03:31;766.90;;;428.08;;
7783;SDS011;19359;51.402;6.778;2023-07-20T07:05:58;765.25;;;417.40;;
7783;SDS011;19359;51.402;6.778;2023-07-20T07:08:25;772.30;;;448.63;;
7783;SDS011;19359;51.402;6.778;2023-07-20T07:10:52;769.50;;;447.20;;
7783;SDS011;19359;51.402;6.778;2023-07-20T07:13:19;768.05;;;443.48;;
7783;SDS011;19359;51.402;6.778;2023-07-20T07:15:47;767.03;;;447.13;;
7783;SDS011;19359;51.402;6.778;2023-07-20T07:18:14;769.65;;;440.98;;
7783;SDS011;19359;51.402;6.778;2023-07-20T07:20:49;784.65;;;460.10;;
7783;SDS011;19359;51.402;6.778;2023-07-20T07:23:17;768.17;;;440.38;;
7783;SDS011;19359;51.402;6.778;2023-07-20T07:25:44;775.63;;;450.15;;
7783;SDS011;19359;51.402;6.778;2023-07-20T07:28:11;772.03;;;448.60;;
7783;SDS011;19359;51.402;6.778;2023-07-20T07:30:38;779.38;;;455.40;;
7783;SDS011;19359;51.402;6.778;2023-07-20T07:33:06;784.00;;;463.13;;
7783;SDS011;19359;51.402;6.778;2023-07-20T07:35:34;816.75;;;484.42;;
7783;SDS011;19359;51.402;6.778;2023-07-20T07:38:02;783.50;;;475.90;;
7783;SDS011;19359;51.402;6.778;2023-07-20T07:40:30;778.78;;;470.45;;
7783;SDS011;19359;51.402;6.778;2023-07-20T07:42:57;792.00;;;486.67;;
7783;SDS011;19359;51.402;6.778;2023-07-20T07:45:24;788.40;;;488.10;;
7783;SDS011;19359;51.402;6.778;2023-07-20T07:47:51;781.92;;;492.10;;
7783;SDS011;19359;51.402;6.778;2023-07-20T07:50:19;777.85;;;497.77;;
7783;SDS011;19359;51.402;6.778;2023-07-20T07:52:46;802.33;;;511.67;;
7783;SDS011;19359;51.402;6.778;2023-07-20T07:55:13;776.08;;;485.48;;
7783;SDS011;19359;51.402;6.778;2023-07-20T07:57:42;782.35;;;500.08;;
7783;SDS011;19359;51.402;6.778;2023-07-20T08:00:10;775.42;;;486.75;;
7783;SDS011;19359;51.402;6.778;2023-07-20T08:02:39;780.95;;;492.77;;
7783;SDS011;19359;51.402;6.778;2023-07-20T08:05:07;771.50;;;487.00;;
7783;SDS011;19359;51.402;6.778;2023-07-20T08:07:35;781.00;;;506.08;;
7783;SDS011;19359;51.402;6.778;2023-07-20T08:10:03;782.22;;;514.42;;
7783;SDS011;19359;51.402;6.778;2023-07-20T08:12:30;788.33;;;519.63;;
7783;SDS011;19359;51.402;6.778;2023-07-20T08:14:57;793.38;;;510.23;;
7783;SDS011;19359;51.402;6.778;2023-07-20T08:17:24;784.17;;;521.72;;
7783;SDS011;19359;51.402;6.778;2023-07-20T08:19:51;787.28;;;528.88;;
7783;SDS011;19359;51.402;6.778;2023-07-20T08:22:18;782.03;;;513.38;;
7783;SDS011;19359;51.402;6.778;2023-07-20T08:24:46;788.90;;;535.90;;
7783;SDS011;19359;51.402;6.778;2023-07-20T08:27:13;784.13;;;522.45;;
7783;SDS011;19359;51.402;6.778;2023-07-20T08:29:40;789.10;;;552.15;;
7783;SDS011;19359;51.402;6.778;2023-07-20T08:32:07;786.30;;;541.20;;
7783;SDS011;19359;51.402;6.778;2023-07-20T08:34:34;780.05;;;524.05;;
7783;SDS011;19359;51.402;6.778;2023-07-20T08:37:01;794.95;;;552.70;;
7783;SDS011;19359;51.402;6.778;2023-07-20T08:39:29;785.50;;;539.38;;
7783;SDS011;19359;51.402;6.778;2023-07-20T08:41:57;791.70;;;549.33;;
7783;SDS011;19359;51.402;6.778;2023-07-20T08:44:29;790.92;;;558.10;;
7783;SDS011;19359;51.402;6.778;2023-07-20T08:46:56;786.90;;;545.58;;
7783;SDS011;19359;51.402;6.778;2023-07-20T08:49:24;797.80;;;561.08;;
7783;SDS011;19359;51.402;6.778;2023-07-20T08:51:51;785.70;;;540.90;;
7783;SDS011;19359;51.402;6.778;2023-07-20T08:54:19;787.33;;;536.42;;
7783;SDS011;19359;51.402;6.778;2023-07-20T08:56:46;781.38;;;540.65;;
7783;SDS011;19359;51.402;6.778;2023-07-20T08:59:16;789.25;;;538.67;;
7783;SDS011;19359;51.402;6.778;2023-07-20T09:01:43;790.63;;;530.83;;
7783;SDS011;19359;51.402;6.778;2023-07-20T09:04:11;776.88;;;524.85;;
7783;SDS011;19359;51.402;6.778;2023-07-20T09:06:38;794.63;;;543.38;;
7783;SDS011;19359;51.402;6.778;2023-07-20T09:09:05;786.63;;;543.75;;
7783;SDS011;19359;51.402;6.778;2023-07-20T09:11:32;780.55;;;527.88;;
7783;SDS011;19359;51.402;6.778;2023-07-20T09:14:03;784.85;;;547.97;;
7783;SDS011;19359;51.402;6.778;2023-07-20T09:16:32;793.42;;;550.78;;
7783;SDS011;19359;51.402;6.778;2023-07-20T09:19:12;794.38;;;554.80;;
7783;SDS011;19359;51.402;6.778;2023-07-20T09:21:41;783.70;;;552.67;;
7783;SDS011;19359;51.402;6.778;2023-07-20T09:24:08;783.20;;;547.42;;
7783;SDS011;19359;51.402;6.778;2023-07-20T09:26:37;789.88;;;557.00;;
7783;SDS011;19359;51.402;6.778;2023-07-20T09:29:07;793.67;;;574.33;;
7783;SDS011;19359;51.402;6.778;2023-07-20T09:31:36;793.47;;;564.45;;
7783;SDS011;19359;51.402;6.778;2023-07-20T09:34:04;791.63;;;559.20;;
7783;SDS011;19359;51.402;6.778;2023-07-20T09:36:32;785.63;;;565.58;;
7783;SDS011;19359;51.402;6.778;2023-07-20T09:39:00;787.53;;;561.00;;
7783;SDS011;19359;51.402;6.778;2023-07-20T09:41:27;792.85;;;582.55;;
7783;SDS011;19359;51.402;6.778;2023-07-20T09:43:54;793.70;;;581.55;;
7783;SDS011;19359;51.402;6.778;2023-07-20T09:46:22;793.08;;;583.03;;
7783;SDS011;19359;51.402;6.778;2023-07-20T09:48:52;800.22;;;603.05;;
7783;SDS011;19359;51.402;6.778;2023-07-20T09:51:20;799.20;;;606.35;;
7783;SDS011;19359;51.402;6.778;2023-07-20T09:53:48;796.15;;;604.45;;
7783;SDS011;19359;51.402;6.778;2023-07-20T09:56:16;802.13;;;603.80;;
7783;SDS011;19359;51.402;6.778;2023-07-20T09:58:47;798.30;;;605.90;;
7783;SDS011;19359;51.402;6.778;2023-07-20T10:01:15;790.72;;;582.25;;
7783;SDS011;19359;51.402;6.778;2023-07-20T10:03:44;790.45;;;590.70;;
7783;SDS011;19359;51.402;6.778;2023-07-20T10:06:15;799.88;;;608.17;;
7783;SDS011;19359;51.402;6.778;2023-07-20T10:08:42;806.22;;;611.70;;
7783;SDS011;19359;51.402;6.778;2023-07-20T10:11:09;801.70;;;617.38;;
7783;SDS011;19359;51.402;6.778;2023-07-20T10:13:38;806.92;;;621.53;;
7783;SDS011;19359;51.402;6.778;2023-07-20T10:16:07;798.08;;;608.55;;
7783;SDS011;19359;51.402;6.778;2023-07-20T10:18:35;796.05;;;600.08;;
7783;SDS011;19359;51.402;6.778;2023-07-20T10:21:05;804.85;;;602.97;;
7783;SDS011;19359;51.402;6.778;2023-07-20T10:23:34;798.33;;;596.97;;
7783;SDS011;19359;51.402;6.778;2023-07-20T10:26:02;804.53;;;607.83;;
7783;SDS011;19359;51.402;6.778;2023-07-20T10:28:29;796.90;;;597.92;;
7783;SDS011;19359;51.402;6.778;2023-07-20T10:30:56;791.25;;;584.97;;
7783;SDS011;19359;51.402;6.778;2023-07-20T10:33:23;805.78;;;586.85;;
7783;SDS011;19359;51.402;6.778;2023-07-20T10:35:51;797.60;;;575.17;;
7783;SDS011;19359;51.402;6.778;2023-07-20T10:38:18;794.15;;;571.35;;
7783;SDS011;19359;51.402;6.778;2023-07-20T10:40:55;791.70;;;568.97;;
7783;SDS011;19359;51.402;6.778;2023-07-20T10:43:22;797.00;;;577.05;;
7783;SDS011;19359;51.402;6.778;2023-07-20T10:45:49;799.40;;;590.35;;
7783;SDS011;19359;51.402;6.778;2023-07-20T10:48:17;811.30;;;606.92;;
7783;SDS011;19359;51.402;6.778;2023-07-20T10:50:45;805.70;;;605.05;;
7783;SDS011;19359;51.402;6.778;2023-07-20T10:53:13;803.13;;;608.33;;
7783;SDS011;19359;51.402;6.778;2023-07-20T10:55:41;801.47;;;622.60;;
7783;SDS011;19359;51.402;6.778;2023-07-20T10:58:11;804.22;;;629.30;;
7783;SDS011;19359;51.402;6.778;2023-07-20T11:03:28;809.55;;;650.08;;
7783;SDS011;19359;51.402;6.778;2023-07-20T11:05:56;808.67;;;657.50;;
7783;SDS011;19359;51.402;6.778;2023-07-20T11:08:39;807.78;;;653.95;;
7783;SDS011;19359;51.402;6.778;2023-07-20T11:11:22;823.60;;;667.28;;
7783;SDS011;19359;51.402;6.778;2023-07-20T11:14:01;812.85;;;654.85;;
7783;SDS011;19359;51.402;6.778;2023-07-20T11:16:32;809.10;;;649.28;;
7783;SDS011;19359;51.402;6.778;2023-07-20T11:19:10;804.28;;;649.13;;
7783;SDS011;19359;51.402;6.778;2023-07-20T11:21:40;820.22;;;663.03;;
7783;SDS011;19359;51.402;6.778;2023-07-20T11:24:08;814.85;;;661.72;;
7783;SDS011;19359;51.402;6.778;2023-07-20T11:26:40;817.75;;;658.35;;
7783;SDS011;19359;51.402;6.778;2023-07-20T11:29:09;812.67;;;667.60;;
7783;SDS011;19359;51.402;6.778;2023-07-20T11:31:37;815.00;;;673.67;;
7783;SDS011;19359;51.402;6.778;2023-07-20T11:34:04;816.97;;;673.40;;
7783;SDS011;19359;51.402;6.778;2023-07-20T11:36:31;815.35;;;691.25;;
7783;SDS011;19359;51.402;6.778;2023-07-20T11:38:58;814.72;;;690.10;;
7783;SDS011;19359;51.402;6.778;2023-07-20T11:41:26;818.72;;;704.45;;
7783;SDS011;19359;51.402;6.778;2023-07-20T11:43:53;828.72;;;711.17;;
7783;SDS011;19359;51.402;6.778;2023-07-20T11:46:22;839.17;;;725.83;;
7783;SDS011;19359;51.402;6.778;2023-07-20T11:48:49;837.95;;;739.65;;
7783;SDS011;19359;51.402;6.778;2023-07-20T11:51:21;822.72;;;713.45;;
7783;SDS011;19359;51.402;6.778;2023-07-20T11:53:50;840.80;;;740.45;;
7783;SDS011;19359;51.402;6.778;2023-07-20T11:56:16;824.15;;;724.22;;
7783;SDS011;19359;51.402;6.778;2023-07-20T11:58:44;822.30;;;718.17;;
7783;SDS011;19359;51.402;6.778;2023-07-20T12:01:12;815.17;;;699.85;;
7783;SDS011;19359;51.402;6.778;2023-07-20T12:03:40;823.05;;;723.40;;
7783;SDS011;19359;51.402;6.778;2023-07-20T12:06:08;824.90;;;709.72;;
7783;SDS011;19359;51.402;6.778;2023-07-20T12:08:37;816.08;;;708.35;;
7783;SDS011;19359;51.402;6.778;2023-07-20T12:11:05;822.63;;;712.63;;
7783;SDS011;19359;51.402;6.778;2023-07-20T12:13:35;818.58;;;716.13;;
7783;SDS011;19359;51.402;6.778;2023-07-20T12:16:06;817.30;;;705.22;;
7783;SDS011;19359;51.402;6.778;2023-07-20T12:18:34;823.45;;;714.78;;
7783;SDS011;19359;51.402;6.778;2023-07-20T12:21:03;818.22;;;695.95;;
7783;SDS011;19359;51.402;6.778;2023-07-20T12:23:34;815.28;;;685.10;;
7783;SDS011;19359;51.402;6.778;2023-07-20T12:26:02;814.20;;;673.88;;
7783;SDS011;19359;51.402;6.778;2023-07-20T12:28:30;819.53;;;666.95;;
7783;SDS011;19359;51.402;6.778;2023-07-20T12:30:58;811.83;;;660.03;;
7783;SDS011;19359;51.402;6.778;2023-07-20T12:33:25;823.42;;;662.58;;
7783;SDS011;19359;51.402;6.778;2023-07-20T12:35:52;815.95;;;663.58;;
7783;SDS011;19359;51.402;6.778;2023-07-20T12:38:22;810.55;;;654.63;;
7783;SDS011;19359;51.402;6.778;2023-07-20T12:40:49;804.90;;;651.55;;
7783;SDS011;19359;51.402;6.778;2023-07-20T12:43:16;811.13;;;662.08;;
7783;SDS011;19359;51.402;6.778;2023-07-20T12:45:43;804.55;;;648.35;;
7783;SDS011;19359;51.402;6.778;2023-07-20T12:48:10;813.03;;;654.30;;
7783;SDS011;19359;51.402;6.778;2023-07-20T12:50:37;807.25;;;672.15;;
7783;SDS011;19359;51.402;6.778;2023-07-20T12:53:04;817.17;;;668.42;;
7783;SDS011;19359;51.402;6.778;2023-07-20T12:55:33;818.15;;;688.55;;
7783;SDS011;19359;51.402;6.778;2023-07-20T12:58:00;815.15;;;686.38;;
7783;SDS011;19359;51.402;6.778;2023-07-20T13:00:27;817.47;;;680.95;;
7783;SDS011;19359;51.402;6.778;2023-07-20T13:02:54;805.42;;;661.17;;
7783;SDS011;19359;51.402;6.778;2023-07-20T13:05:21;813.88;;;666.38;;
7783;SDS011;19359;51.402;6.778;2023-07-20T13:07:48;808.17;;;670.88;;
7783;SDS011;19359;51.402;6.778;2023-07-20T13:10:15;808.00;;;669.15;;
7783;SDS011;19359;51.402;6.778;2023-07-20T13:12:44;809.67;;;660.63;;
7783;SDS011;19359;51.402;6.778;2023-07-20T13:15:11;800.75;;;664.85;;
7783;SDS011;19359;51.402;6.778;2023-07-20T13:17:39;810.13;;;675.88;;
7783;SDS011;19359;51.402;6.778;2023-07-20T13:20:06;809.72;;;689.03;;
7783;SDS011;19359;51.402;6.778;2023-07-20T13:22:35;814.45;;;694.38;;
7783;SDS011;19359;51.402;6.778;2023-07-20T13:25:02;814.55;;;690.90;;
7783;SDS011;19359;51.402;6.778;2023-07-20T13:27:30;821.17;;;690.75;;
7783;SDS011;19359;51.402;6.778;2023-07-20T13:29:58;811.50;;;692.63;;
7783;SDS011;19359;51.402;6.778;2023-07-20T13:32:26;808.78;;;690.17;;
7783;SDS011;19359;51.402;6.778;2023-07-20T13:34:53;818.88;;;703.30;;
7783;SDS011;19359;51.402;6.778;2023-07-20T13:37:20;816.63;;;698.50;;
7783;SDS011;19359;51.402;6.778;2023-07-20T13:39:47;813.53;;;700.20;;
7783;SDS011;19359;51.402;6.778;2023-07-20T13:42:15;816.20;;;692.00;;
7783;SDS011;19359;51.402;6.778;2023-07-20T13:44:42;815.53;;;685.85;;
7783;SDS011;19359;51.402;6.778;2023-07-20T13:47:10;820.92;;;692.30;;
7783;SDS011;19359;51.402;6.778;2023-07-20T13:49:37;797.67;;;659.70;;
7783;SDS011;19359;51.402;6.778;2023-07-20T13:52:05;809.42;;;674.45;;
7783;SDS011;19359;51.402;6.778;2023-07-20T13:54:32;800.38;;;668.50;;
7783;SDS011;19359;51.402;6.778;2023-07-20T13:56:59;809.10;;;672.53;;
7783;SDS011;19359;51.402;6.778;2023-07-20T13:59:26;794.95;;;652.20;;
7783;SDS011;19359;51.402;6.778;2023-07-20T14:01:52;803.47;;;673.58;;
7783;SDS011;19359;51.402;6.778;2023-07-20T14:04:21;805.53;;;658.55;;
7783;SDS011;19359;51.402;6.778;2023-07-20T14:06:48;801.25;;;663.45;;
7783;SDS011;19359;51.402;6.778;2023-07-20T14:09:15;818.33;;;686.38;;
7783;SDS011;19359;51.402;6.778;2023-07-20T14:11:42;809.63;;;697.80;;
7783;SDS011;19359;51.402;6.778;2023-07-20T14:14:09;807.38;;;692.78;;
7783;SDS011;19359;51.402;6.778;2023-07-20T14:16:36;822.08;;;730.38;;
7783;SDS011;19359;51.402;6.778;2023-07-20T14:19:03;851.42;;;759.55;;